sensor_id;sensor_type;location;lat;lon;timestamp;P1;durP1;ratioP1;P2;durP2;ratioP2
12271;SDS011;6198;51.446;6.698;2023-06-26T00:01:50;8.77;;;7.70;;
12271;SDS011;6198;51.446;6.698;2023-06-26T00:04:16;8.90;;;7.83;;
12271;SDS011;6198;51.446;6.698;2023-06-26T00:06:42;10.47;;;7.67;;
12271;SDS011;6198;51.446;6.698;2023-06-26T00:09:08;10.23;;;8.60;;
12271;SDS011;6198;51.446;6.698;2023-06-26T00:11:34;9.20;;;7.90;;
12271;SDS011;6198;51.446;6.698;2023-06-26T00:14:00;10.50;;;8.33;;
12271;SDS011;6198;51.446;6.698;2023-06-26T00:16:26;15.00;;;8.13;;
12271;SDS011;6198;51.446;6.698;2023-06-26T00:18:52;11.97;;;8.20;;
12271;SDS011;6198;51.446;6.698;2023-06-26T00:21:19;9.60;;;8.60;;
12271;SDS011;6198;51.446;6.698;2023-06-26T00:23:45;12.47;;;9.10;;
12271;SDS011;6198;51.446;6.698;2023-06-26T00:26:11;10.87;;;9.17;;
12271;SDS011;6198;51.446;6.698;2023-06-26T00:28:37;9.70;;;8.70;;
12271;SDS011;6198;51.446;6.698;2023-06-26T00:31:03;12.67;;;8.77;;
12271;SDS011;6198;51.446;6.698;2023-06-26T00:33:29;13.13;;;9.07;;
12271;SDS011;6198;51.446;6.698;2023-06-26T00:35:56;9.97;;;8.63;;
12271;SDS011;6198;51.446;6.698;2023-06-26T00:38:22;9.57;;;8.67;;
12271;SDS011;6198;51.446;6.698;2023-06-26T00:40:47;12.23;;;8.83;;
12271;SDS011;6198;51.446;6.698;2023-06-26T00:43:14;10.97;;;8.57;;
12271;SDS011;6198;51.446;6.698;2023-06-26T00:45:40;10.90;;;9.10;;
12271;SDS011;6198;51.446;6.698;2023-06-26T00:48:05;9.70;;;8.70;;
12271;SDS011;6198;51.446;6.698;2023-06-26T00:50:31;9.97;;;8.90;;
12271;SDS011;6198;51.446;6.698;2023-06-26T00:52:57;11.53;;;9.00;;
12271;SDS011;6198;51.446;6.698;2023-06-26T00:55:26;9.67;;;8.67;;
12271;SDS011;6198;51.446;6.698;2023-06-26T00:57:52;10.03;;;9.03;;
12271;SDS011;6198;51.446;6.698;2023-06-26T01:00:18;9.77;;;8.77;;
12271;SDS011;6198;51.446;6.698;2023-06-26T01:02:44;12.43;;;9.40;;
12271;SDS011;6198;51.446;6.698;2023-06-26T01:05:11;10.30;;;9.27;;
12271;SDS011;6198;51.446;6.698;2023-06-26T01:07:37;10.87;;;9.63;;
12271;SDS011;6198;51.446;6.698;2023-06-26T01:10:04;11.87;;;9.73;;
12271;SDS011;6198;51.446;6.698;2023-06-26T01:12:31;12.23;;;9.80;;
12271;SDS011;6198;51.446;6.698;2023-06-26T01:14:57;12.73;;;9.50;;
12271;SDS011;6198;51.446;6.698;2023-06-26T01:17:24;11.80;;;10.03;;
12271;SDS011;6198;51.446;6.698;2023-06-26T01:19:50;11.20;;;9.70;;
12271;SDS011;6198;51.446;6.698;2023-06-26T01:22:27;14.83;;;9.80;;
12271;SDS011;6198;51.446;6.698;2023-06-26T01:25:09;10.53;;;9.37;;
12271;SDS011;6198;51.446;6.698;2023-06-26T01:27:37;11.80;;;9.93;;
12271;SDS011;6198;51.446;6.698;2023-06-26T01:30:03;11.30;;;9.43;;
12271;SDS011;6198;51.446;6.698;2023-06-26T01:32:30;12.57;;;9.43;;
12271;SDS011;6198;51.446;6.698;2023-06-26T01:34:57;11.87;;;9.90;;
12271;SDS011;6198;51.446;6.698;2023-06-26T01:37:23;14.50;;;9.70;;
12271;SDS011;6198;51.446;6.698;2023-06-26T01:39:49;14.00;;;9.60;;
12271;SDS011;6198;51.446;6.698;2023-06-26T01:42:15;11.57;;;9.73;;
12271;SDS011;6198;51.446;6.698;2023-06-26T01:44:44;10.50;;;9.40;;
12271;SDS011;6198;51.446;6.698;2023-06-26T01:47:11;12.67;;;9.83;;
12271;SDS011;6198;51.446;6.698;2023-06-26T01:52:21;12.93;;;9.63;;
12271;SDS011;6198;51.446;6.698;2023-06-26T01:54:53;10.13;;;9.13;;
12271;SDS011;6198;51.446;6.698;2023-06-26T01:57:20;10.77;;;9.63;;
12271;SDS011;6198;51.446;6.698;2023-06-26T01:59:47;10.73;;;9.70;;
12271;SDS011;6198;51.446;6.698;2023-06-26T02:02:14;12.07;;;9.60;;
12271;SDS011;6198;51.446;6.698;2023-06-26T02:04:40;12.70;;;9.97;;
12271;SDS011;6198;51.446;6.698;2023-06-26T02:07:06;13.17;;;9.90;;
12271;SDS011;6198;51.446;6.698;2023-06-26T02:09:34;10.87;;;9.73;;
12271;SDS011;6198;51.446;6.698;2023-06-26T02:12:00;12.07;;;10.83;;
12271;SDS011;6198;51.446;6.698;2023-06-26T02:14:26;13.80;;;9.80;;
12271;SDS011;6198;51.446;6.698;2023-06-26T02:16:52;20.63;;;9.83;;
12271;SDS011;6198;51.446;6.698;2023-06-26T02:19:18;11.23;;;9.37;;
12271;SDS011;6198;51.446;6.698;2023-06-26T02:21:47;12.93;;;9.13;;
12271;SDS011;6198;51.446;6.698;2023-06-26T02:24:13;26.63;;;9.30;;
12271;SDS011;6198;51.446;6.698;2023-06-26T02:26:39;26.63;;;9.70;;
12271;SDS011;6198;51.446;6.698;2023-06-26T02:29:05;10.07;;;9.07;;
12271;SDS011;6198;51.446;6.698;2023-06-26T02:31:31;11.40;;;8.80;;
12271;SDS011;6198;51.446;6.698;2023-06-26T02:33:57;10.27;;;8.60;;
12271;SDS011;6198;51.446;6.698;2023-06-26T02:36:23;9.77;;;8.77;;
12271;SDS011;6198;51.446;6.698;2023-06-26T02:38:49;10.83;;;8.97;;
12271;SDS011;6198;51.446;6.698;2023-06-26T02:41:15;11.73;;;9.10;;
12271;SDS011;6198;51.446;6.698;2023-06-26T02:43:41;10.07;;;8.97;;
12271;SDS011;6198;51.446;6.698;2023-06-26T02:46:06;10.57;;;8.73;;
12271;SDS011;6198;51.446;6.698;2023-06-26T02:48:32;11.67;;;9.27;;
12271;SDS011;6198;51.446;6.698;2023-06-26T02:50:59;10.90;;;9.03;;
12271;SDS011;6198;51.446;6.698;2023-06-26T02:53:25;12.20;;;8.67;;
12271;SDS011;6198;51.446;6.698;2023-06-26T02:55:50;12.07;;;9.07;;
12271;SDS011;6198;51.446;6.698;2023-06-26T02:58:16;14.20;;;9.47;;
12271;SDS011;6198;51.446;6.698;2023-06-26T03:00:42;10.20;;;8.90;;
12271;SDS011;6198;51.446;6.698;2023-06-26T03:03:09;10.33;;;9.13;;
12271;SDS011;6198;51.446;6.698;2023-06-26T03:05:35;11.27;;;8.87;;
12271;SDS011;6198;51.446;6.698;2023-06-26T03:08:02;10.40;;;8.43;;
12271;SDS011;6198;51.446;6.698;2023-06-26T03:10:28;13.43;;;9.20;;
12271;SDS011;6198;51.446;6.698;2023-06-26T03:12:54;11.97;;;8.87;;
12271;SDS011;6198;51.446;6.698;2023-06-26T03:15:20;11.27;;;8.60;;
12271;SDS011;6198;51.446;6.698;2023-06-26T03:17:46;12.27;;;8.93;;
12271;SDS011;6198;51.446;6.698;2023-06-26T03:20:12;10.07;;;8.33;;
12271;SDS011;6198;51.446;6.698;2023-06-26T03:22:38;12.30;;;8.37;;
12271;SDS011;6198;51.446;6.698;2023-06-26T03:25:04;9.50;;;8.60;;
12271;SDS011;6198;51.446;6.698;2023-06-26T03:27:30;9.80;;;8.80;;
12271;SDS011;6198;51.446;6.698;2023-06-26T03:29:56;9.30;;;8.47;;
12271;SDS011;6198;51.446;6.698;2023-06-26T03:32:22;13.17;;;8.87;;
12271;SDS011;6198;51.446;6.698;2023-06-26T03:34:47;11.03;;;8.47;;
12271;SDS011;6198;51.446;6.698;2023-06-26T03:37:13;13.63;;;8.33;;
12271;SDS011;6198;51.446;6.698;2023-06-26T03:39:39;11.20;;;8.60;;
12271;SDS011;6198;51.446;6.698;2023-06-26T03:42:05;9.97;;;8.47;;
12271;SDS011;6198;51.446;6.698;2023-06-26T03:44:31;9.20;;;8.37;;
12271;SDS011;6198;51.446;6.698;2023-06-26T03:46:57;9.93;;;8.80;;
12271;SDS011;6198;51.446;6.698;2023-06-26T03:49:23;9.63;;;8.57;;
12271;SDS011;6198;51.446;6.698;2023-06-26T03:51:49;9.20;;;8.20;;
12271;SDS011;6198;51.446;6.698;2023-06-26T03:54:15;9.10;;;8.17;;
12271;SDS011;6198;51.446;6.698;2023-06-26T03:56:41;10.67;;;8.07;;
12271;SDS011;6198;51.446;6.698;2023-06-26T03:59:07;13.27;;;8.33;;
12271;SDS011;6198;51.446;6.698;2023-06-26T04:01:33;8.67;;;7.33;;
12271;SDS011;6198;51.446;6.698;2023-06-26T04:04:01;9.00;;;7.37;;
12271;SDS011;6198;51.446;6.698;2023-06-26T04:06:27;10.27;;;7.20;;
12271;SDS011;6198;51.446;6.698;2023-06-26T04:08:53;8.77;;;7.10;;
12271;SDS011;6198;51.446;6.698;2023-06-26T04:11:19;9.67;;;7.30;;
12271;SDS011;6198;51.446;6.698;2023-06-26T04:13:45;7.60;;;6.80;;
12271;SDS011;6198;51.446;6.698;2023-06-26T04:16:12;7.70;;;6.90;;
12271;SDS011;6198;51.446;6.698;2023-06-26T04:18:38;8.63;;;6.67;;
12271;SDS011;6198;51.446;6.698;2023-06-26T04:21:05;7.90;;;6.67;;
12271;SDS011;6198;51.446;6.698;2023-06-26T04:23:32;8.93;;;6.53;;
12271;SDS011;6198;51.446;6.698;2023-06-26T04:25:58;9.53;;;6.40;;
12271;SDS011;6198;51.446;6.698;2023-06-26T04:28:24;7.77;;;6.60;;
12271;SDS011;6198;51.446;6.698;2023-06-26T04:30:50;14.47;;;6.33;;
12271;SDS011;6198;51.446;6.698;2023-06-26T04:33:16;7.63;;;6.03;;
12271;SDS011;6198;51.446;6.698;2023-06-26T04:35:42;9.30;;;6.17;;
12271;SDS011;6198;51.446;6.698;2023-06-26T04:38:09;8.87;;;6.67;;
12271;SDS011;6198;51.446;6.698;2023-06-26T04:40:36;6.97;;;6.27;;
12271;SDS011;6198;51.446;6.698;2023-06-26T04:43:02;11.97;;;6.40;;
12271;SDS011;6198;51.446;6.698;2023-06-26T04:45:28;8.60;;;6.17;;
12271;SDS011;6198;51.446;6.698;2023-06-26T04:47:54;7.83;;;6.37;;
12271;SDS011;6198;51.446;6.698;2023-06-26T04:50:21;7.50;;;6.40;;
12271;SDS011;6198;51.446;6.698;2023-06-26T04:52:47;7.93;;;6.80;;
12271;SDS011;6198;51.446;6.698;2023-06-26T04:55:13;11.07;;;7.07;;
12271;SDS011;6198;51.446;6.698;2023-06-26T04:57:39;9.43;;;7.27;;
12271;SDS011;6198;51.446;6.698;2023-06-26T05:00:05;8.00;;;7.10;;
12271;SDS011;6198;51.446;6.698;2023-06-26T05:02:34;8.33;;;7.10;;
12271;SDS011;6198;51.446;6.698;2023-06-26T05:05:00;9.00;;;7.07;;
12271;SDS011;6198;51.446;6.698;2023-06-26T05:07:26;8.37;;;7.40;;
12271;SDS011;6198;51.446;6.698;2023-06-26T05:09:52;8.13;;;6.87;;
12271;SDS011;6198;51.446;6.698;2023-06-26T05:12:18;8.07;;;7.23;;
12271;SDS011;6198;51.446;6.698;2023-06-26T05:14:44;8.40;;;6.83;;
12271;SDS011;6198;51.446;6.698;2023-06-26T05:17:11;8.90;;;7.17;;
12271;SDS011;6198;51.446;6.698;2023-06-26T05:19:37;10.70;;;6.80;;
12271;SDS011;6198;51.446;6.698;2023-06-26T05:22:03;8.37;;;7.07;;
12271;SDS011;6198;51.446;6.698;2023-06-26T05:24:32;8.17;;;6.97;;
12271;SDS011;6198;51.446;6.698;2023-06-26T05:26:58;12.83;;;6.97;;
12271;SDS011;6198;51.446;6.698;2023-06-26T05:29:24;10.93;;;7.23;;
12271;SDS011;6198;51.446;6.698;2023-06-26T05:31:51;10.87;;;6.13;;
12271;SDS011;6198;51.446;6.698;2023-06-26T05:34:17;10.90;;;6.47;;
12271;SDS011;6198;51.446;6.698;2023-06-26T05:36:45;10.40;;;6.03;;
12271;SDS011;6198;51.446;6.698;2023-06-26T05:39:14;11.37;;;6.93;;
12271;SDS011;6198;51.446;6.698;2023-06-26T05:41:40;9.93;;;6.20;;
12271;SDS011;6198;51.446;6.698;2023-06-26T05:44:06;10.30;;;6.27;;
12271;SDS011;6198;51.446;6.698;2023-06-26T05:46:32;9.73;;;6.33;;
12271;SDS011;6198;51.446;6.698;2023-06-26T05:48:58;10.50;;;6.97;;
12271;SDS011;6198;51.446;6.698;2023-06-26T05:51:24;10.03;;;6.33;;
12271;SDS011;6198;51.446;6.698;2023-06-26T05:53:50;11.33;;;6.40;;
12271;SDS011;6198;51.446;6.698;2023-06-26T05:56:16;15.43;;;7.13;;
12271;SDS011;6198;51.446;6.698;2023-06-26T05:58:43;9.10;;;6.40;;
12271;SDS011;6198;51.446;6.698;2023-06-26T06:01:09;12.03;;;7.00;;
12271;SDS011;6198;51.446;6.698;2023-06-26T06:03:35;10.00;;;6.20;;
12271;SDS011;6198;51.446;6.698;2023-06-26T06:06:01;12.53;;;6.70;;
12271;SDS011;6198;51.446;6.698;2023-06-26T06:08:27;13.47;;;6.30;;
12271;SDS011;6198;51.446;6.698;2023-06-26T06:10:53;9.97;;;6.23;;
12271;SDS011;6198;51.446;6.698;2023-06-26T06:13:19;12.57;;;6.80;;
12271;SDS011;6198;51.446;6.698;2023-06-26T06:15:45;11.00;;;6.30;;
12271;SDS011;6198;51.446;6.698;2023-06-26T06:18:11;14.70;;;7.40;;
12271;SDS011;6198;51.446;6.698;2023-06-26T06:20:37;12.93;;;6.10;;
12271;SDS011;6198;51.446;6.698;2023-06-26T06:23:03;15.30;;;7.50;;
12271;SDS011;6198;51.446;6.698;2023-06-26T06:25:29;14.20;;;6.67;;
12271;SDS011;6198;51.446;6.698;2023-06-26T06:27:54;12.53;;;6.97;;
12271;SDS011;6198;51.446;6.698;2023-06-26T06:30:20;15.10;;;6.93;;
12271;SDS011;6198;51.446;6.698;2023-06-26T06:32:46;13.10;;;7.27;;
12271;SDS011;6198;51.446;6.698;2023-06-26T06:35:19;14.80;;;7.10;;
12271;SDS011;6198;51.446;6.698;2023-06-26T06:37:45;17.47;;;6.47;;
12271;SDS011;6198;51.446;6.698;2023-06-26T06:40:11;15.47;;;6.77;;
12271;SDS011;6198;51.446;6.698;2023-06-26T06:42:38;14.90;;;6.43;;
12271;SDS011;6198;51.446;6.698;2023-06-26T06:45:04;19.00;;;6.73;;
12271;SDS011;6198;51.446;6.698;2023-06-26T06:47:31;10.67;;;5.90;;
12271;SDS011;6198;51.446;6.698;2023-06-26T06:49:57;14.10;;;6.73;;
12271;SDS011;6198;51.446;6.698;2023-06-26T06:52:23;13.97;;;6.93;;
12271;SDS011;6198;51.446;6.698;2023-06-26T06:54:53;14.23;;;7.07;;
12271;SDS011;6198;51.446;6.698;2023-06-26T06:57:19;15.83;;;7.07;;
12271;SDS011;6198;51.446;6.698;2023-06-26T06:59:45;11.03;;;7.13;;
12271;SDS011;6198;51.446;6.698;2023-06-26T07:02:12;13.43;;;7.10;;
12271;SDS011;6198;51.446;6.698;2023-06-26T07:04:38;13.13;;;7.20;;
12271;SDS011;6198;51.446;6.698;2023-06-26T07:07:04;18.10;;;8.33;;
12271;SDS011;6198;51.446;6.698;2023-06-26T07:09:30;19.77;;;7.70;;
12271;SDS011;6198;51.446;6.698;2023-06-26T07:11:56;17.77;;;7.17;;
12271;SDS011;6198;51.446;6.698;2023-06-26T07:14:22;15.87;;;7.83;;
12271;SDS011;6198;51.446;6.698;2023-06-26T07:16:48;14.67;;;7.30;;
12271;SDS011;6198;51.446;6.698;2023-06-26T07:19:14;11.70;;;7.00;;
12271;SDS011;6198;51.446;6.698;2023-06-26T07:21:40;16.97;;;7.40;;
12271;SDS011;6198;51.446;6.698;2023-06-26T07:24:08;12.43;;;7.77;;
12271;SDS011;6198;51.446;6.698;2023-06-26T07:26:33;14.33;;;7.90;;
12271;SDS011;6198;51.446;6.698;2023-06-26T07:28:59;15.60;;;8.40;;
12271;SDS011;6198;51.446;6.698;2023-06-26T07:31:25;14.90;;;7.80;;
12271;SDS011;6198;51.446;6.698;2023-06-26T07:33:51;15.60;;;7.87;;
12271;SDS011;6198;51.446;6.698;2023-06-26T07:36:17;13.63;;;7.90;;
12271;SDS011;6198;51.446;6.698;2023-06-26T07:38:43;14.43;;;8.57;;
12271;SDS011;6198;51.446;6.698;2023-06-26T07:41:09;17.30;;;8.77;;
12271;SDS011;6198;51.446;6.698;2023-06-26T07:43:35;12.73;;;7.33;;
12271;SDS011;6198;51.446;6.698;2023-06-26T07:46:01;14.30;;;7.60;;
12271;SDS011;6198;51.446;6.698;2023-06-26T07:48:27;11.57;;;6.87;;
12271;SDS011;6198;51.446;6.698;2023-06-26T07:50:53;15.77;;;6.60;;
12271;SDS011;6198;51.446;6.698;2023-06-26T07:53:19;16.77;;;6.97;;
12271;SDS011;6198;51.446;6.698;2023-06-26T07:55:45;14.93;;;7.23;;
12271;SDS011;6198;51.446;6.698;2023-06-26T07:58:11;17.63;;;7.43;;
12271;SDS011;6198;51.446;6.698;2023-06-26T08:00:37;15.13;;;7.17;;
12271;SDS011;6198;51.446;6.698;2023-06-26T08:03:03;11.37;;;6.13;;
12271;SDS011;6198;51.446;6.698;2023-06-26T08:05:29;17.17;;;7.20;;
12271;SDS011;6198;51.446;6.698;2023-06-26T08:07:55;13.07;;;6.60;;
12271;SDS011;6198;51.446;6.698;2023-06-26T08:10:21;16.27;;;6.57;;
12271;SDS011;6198;51.446;6.698;2023-06-26T08:12:47;16.03;;;6.67;;
12271;SDS011;6198;51.446;6.698;2023-06-26T08:15:15;11.00;;;6.17;;
12271;SDS011;6198;51.446;6.698;2023-06-26T08:17:41;14.77;;;6.00;;
12271;SDS011;6198;51.446;6.698;2023-06-26T08:20:07;17.37;;;6.87;;
12271;SDS011;6198;51.446;6.698;2023-06-26T08:22:33;13.03;;;5.90;;
12271;SDS011;6198;51.446;6.698;2023-06-26T08:24:59;14.23;;;6.43;;
12271;SDS011;6198;51.446;6.698;2023-06-26T08:27:25;13.47;;;5.80;;
12271;SDS011;6198;51.446;6.698;2023-06-26T08:29:51;13.57;;;5.70;;
12271;SDS011;6198;51.446;6.698;2023-06-26T08:32:17;12.53;;;5.57;;
12271;SDS011;6198;51.446;6.698;2023-06-26T08:34:43;8.60;;;5.23;;
12271;SDS011;6198;51.446;6.698;2023-06-26T08:37:09;11.27;;;5.33;;
12271;SDS011;6198;51.446;6.698;2023-06-26T08:39:35;17.37;;;6.37;;
12271;SDS011;6198;51.446;6.698;2023-06-26T08:42:01;15.03;;;6.20;;
12271;SDS011;6198;51.446;6.698;2023-06-26T08:44:27;12.43;;;5.93;;
12271;SDS011;6198;51.446;6.698;2023-06-26T08:46:53;14.43;;;6.07;;
12271;SDS011;6198;51.446;6.698;2023-06-26T08:49:28;11.20;;;5.53;;
12271;SDS011;6198;51.446;6.698;2023-06-26T08:51:56;13.93;;;6.10;;
12271;SDS011;6198;51.446;6.698;2023-06-26T08:54:25;13.30;;;5.57;;
12271;SDS011;6198;51.446;6.698;2023-06-26T08:56:53;14.10;;;5.73;;
12271;SDS011;6198;51.446;6.698;2023-06-26T08:59:20;14.90;;;5.50;;
12271;SDS011;6198;51.446;6.698;2023-06-26T09:01:46;9.83;;;5.17;;
12271;SDS011;6198;51.446;6.698;2023-06-26T09:04:12;14.03;;;6.07;;
12271;SDS011;6198;51.446;6.698;2023-06-26T09:06:39;10.60;;;5.80;;
12271;SDS011;6198;51.446;6.698;2023-06-26T09:09:05;12.63;;;5.83;;
12271;SDS011;6198;51.446;6.698;2023-06-26T09:11:32;12.90;;;6.07;;
12271;SDS011;6198;51.446;6.698;2023-06-26T09:13:58;12.70;;;5.13;;
12271;SDS011;6198;51.446;6.698;2023-06-26T09:16:25;12.40;;;5.40;;
12271;SDS011;6198;51.446;6.698;2023-06-26T09:18:51;13.80;;;5.10;;
12271;SDS011;6198;51.446;6.698;2023-06-26T09:21:17;9.70;;;5.47;;
12271;SDS011;6198;51.446;6.698;2023-06-26T09:23:43;6.73;;;4.60;;
12271;SDS011;6198;51.446;6.698;2023-06-26T09:26:10;10.87;;;5.63;;
12271;SDS011;6198;51.446;6.698;2023-06-26T09:28:36;7.97;;;4.67;;
12271;SDS011;6198;51.446;6.698;2023-06-26T09:31:04;15.43;;;5.83;;
12271;SDS011;6198;51.446;6.698;2023-06-26T09:33:34;7.43;;;4.67;;
12271;SDS011;6198;51.446;6.698;2023-06-26T09:36:01;7.17;;;4.90;;
12271;SDS011;6198;51.446;6.698;2023-06-26T09:38:28;10.57;;;4.90;;
12271;SDS011;6198;51.446;6.698;2023-06-26T09:40:54;9.13;;;4.57;;
12271;SDS011;6198;51.446;6.698;2023-06-26T09:43:20;8.70;;;4.90;;
12271;SDS011;6198;51.446;6.698;2023-06-26T09:45:46;9.10;;;4.73;;
12271;SDS011;6198;51.446;6.698;2023-06-26T09:48:11;8.47;;;5.27;;
12271;SDS011;6198;51.446;6.698;2023-06-26T09:50:41;8.43;;;4.60;;
12271;SDS011;6198;51.446;6.698;2023-06-26T09:53:07;11.83;;;4.67;;
12271;SDS011;6198;51.446;6.698;2023-06-26T09:55:40;7.93;;;4.27;;
12271;SDS011;6198;51.446;6.698;2023-06-26T09:58:09;5.97;;;4.40;;
12271;SDS011;6198;51.446;6.698;2023-06-26T10:00:39;7.40;;;4.50;;
12271;SDS011;6198;51.446;6.698;2023-06-26T10:03:05;11.10;;;4.30;;
12271;SDS011;6198;51.446;6.698;2023-06-26T10:05:31;13.43;;;4.50;;
12271;SDS011;6198;51.446;6.698;2023-06-26T10:07:57;6.03;;;3.80;;
12271;SDS011;6198;51.446;6.698;2023-06-26T10:10:24;5.43;;;3.77;;
12271;SDS011;6198;51.446;6.698;2023-06-26T10:12:51;9.67;;;4.17;;
12271;SDS011;6198;51.446;6.698;2023-06-26T10:15:20;9.87;;;3.97;;
12271;SDS011;6198;51.446;6.698;2023-06-26T10:17:46;8.10;;;4.33;;
12271;SDS011;6198;51.446;6.698;2023-06-26T10:20:14;11.17;;;4.30;;
12271;SDS011;6198;51.446;6.698;2023-06-26T10:22:44;8.13;;;3.80;;
12271;SDS011;6198;51.446;6.698;2023-06-26T10:25:10;9.70;;;4.50;;
12271;SDS011;6198;51.446;6.698;2023-06-26T10:27:38;7.10;;;3.97;;
12271;SDS011;6198;51.446;6.698;2023-06-26T10:30:09;10.33;;;4.17;;
12271;SDS011;6198;51.446;6.698;2023-06-26T10:32:37;10.50;;;3.70;;
12271;SDS011;6198;51.446;6.698;2023-06-26T10:35:05;6.13;;;4.20;;
12271;SDS011;6198;51.446;6.698;2023-06-26T10:37:44;11.00;;;4.53;;
12271;SDS011;6198;51.446;6.698;2023-06-26T10:40:11;9.57;;;4.30;;
12271;SDS011;6198;51.446;6.698;2023-06-26T10:42:38;5.07;;;4.00;;
12271;SDS011;6198;51.446;6.698;2023-06-26T10:45:13;6.80;;;3.90;;
12271;SDS011;6198;51.446;6.698;2023-06-26T10:47:39;5.50;;;3.20;;
12271;SDS011;6198;51.446;6.698;2023-06-26T10:50:25;4.60;;;2.63;;
12271;SDS011;6198;51.446;6.698;2023-06-26T10:53:07;4.23;;;2.80;;
12271;SDS011;6198;51.446;6.698;2023-06-26T10:55:34;4.77;;;2.97;;
12271;SDS011;6198;51.446;6.698;2023-06-26T10:58:00;5.53;;;2.93;;
12271;SDS011;6198;51.446;6.698;2023-06-26T11:00:29;4.27;;;2.47;;
12271;SDS011;6198;51.446;6.698;2023-06-26T11:02:55;4.43;;;2.93;;
12271;SDS011;6198;51.446;6.698;2023-06-26T11:05:32;3.63;;;2.80;;
12271;SDS011;6198;51.446;6.698;2023-06-26T11:08:05;3.13;;;2.30;;
12271;SDS011;6198;51.446;6.698;2023-06-26T11:10:50;3.27;;;2.50;;
12271;SDS011;6198;51.446;6.698;2023-06-26T11:13:17;6.57;;;2.50;;
12271;SDS011;6198;51.446;6.698;2023-06-26T11:15:44;4.10;;;2.40;;
12271;SDS011;6198;51.446;6.698;2023-06-26T11:18:10;4.40;;;2.50;;
12271;SDS011;6198;51.446;6.698;2023-06-26T11:20:36;5.93;;;2.70;;
12271;SDS011;6198;51.446;6.698;2023-06-26T11:23:03;6.53;;;2.37;;
12271;SDS011;6198;51.446;6.698;2023-06-26T11:25:36;8.20;;;2.70;;
12271;SDS011;6198;51.446;6.698;2023-06-26T11:28:03;10.50;;;2.67;;
12271;SDS011;6198;51.446;6.698;2023-06-26T11:30:29;4.40;;;2.40;;
12271;SDS011;6198;51.446;6.698;2023-06-26T11:33:05;9.33;;;2.00;;
12271;SDS011;6198;51.446;6.698;2023-06-26T11:35:31;12.13;;;2.53;;
12271;SDS011;6198;51.446;6.698;2023-06-26T11:37:57;3.43;;;1.90;;
12271;SDS011;6198;51.446;6.698;2023-06-26T11:40:29;5.80;;;2.07;;
12271;SDS011;6198;51.446;6.698;2023-06-26T11:43:00;7.10;;;2.37;;
12271;SDS011;6198;51.446;6.698;2023-06-26T11:45:30;8.87;;;2.37;;
12271;SDS011;6198;51.446;6.698;2023-06-26T11:47:56;5.90;;;2.27;;
12271;SDS011;6198;51.446;6.698;2023-06-26T11:50:22;6.60;;;2.23;;
12271;SDS011;6198;51.446;6.698;2023-06-26T11:52:55;4.00;;;1.73;;
12271;SDS011;6198;51.446;6.698;2023-06-26T11:55:22;2.83;;;1.90;;
12271;SDS011;6198;51.446;6.698;2023-06-26T11:57:48;4.33;;;2.20;;
12271;SDS011;6198;51.446;6.698;2023-06-26T12:00:15;5.57;;;2.17;;
12271;SDS011;6198;51.446;6.698;2023-06-26T12:02:42;2.67;;;1.90;;
12271;SDS011;6198;51.446;6.698;2023-06-26T12:05:08;3.23;;;1.80;;
12271;SDS011;6198;51.446;6.698;2023-06-26T12:07:34;4.27;;;1.70;;
12271;SDS011;6198;51.446;6.698;2023-06-26T12:10:02;3.53;;;1.73;;
12271;SDS011;6198;51.446;6.698;2023-06-26T12:12:28;2.20;;;1.70;;
12271;SDS011;6198;51.446;6.698;2023-06-26T12:14:54;6.23;;;2.00;;
12271;SDS011;6198;51.446;6.698;2023-06-26T12:17:22;3.80;;;1.80;;
12271;SDS011;6198;51.446;6.698;2023-06-26T12:19:48;4.23;;;1.87;;
12271;SDS011;6198;51.446;6.698;2023-06-26T12:22:15;6.63;;;1.73;;
12271;SDS011;6198;51.446;6.698;2023-06-26T12:24:42;6.60;;;1.70;;
12271;SDS011;6198;51.446;6.698;2023-06-26T12:27:08;9.73;;;1.97;;
12271;SDS011;6198;51.446;6.698;2023-06-26T12:29:35;3.63;;;1.90;;
12271;SDS011;6198;51.446;6.698;2023-06-26T12:32:01;5.03;;;2.00;;
12271;SDS011;6198;51.446;6.698;2023-06-26T12:34:37;11.17;;;2.13;;
12271;SDS011;6198;51.446;6.698;2023-06-26T12:37:12;5.47;;;1.90;;
12271;SDS011;6198;51.446;6.698;2023-06-26T12:39:52;4.53;;;2.30;;
12271;SDS011;6198;51.446;6.698;2023-06-26T12:42:19;8.13;;;2.07;;
12271;SDS011;6198;51.446;6.698;2023-06-26T12:44:45;4.27;;;2.03;;
12271;SDS011;6198;51.446;6.698;2023-06-26T12:47:11;5.10;;;2.00;;
12271;SDS011;6198;51.446;6.698;2023-06-26T12:49:42;3.10;;;1.77;;
12271;SDS011;6198;51.446;6.698;2023-06-26T12:52:09;6.23;;;1.83;;
12271;SDS011;6198;51.446;6.698;2023-06-26T12:54:36;2.73;;;1.73;;
12271;SDS011;6198;51.446;6.698;2023-06-26T12:57:02;3.80;;;1.70;;
12271;SDS011;6198;51.446;6.698;2023-06-26T12:59:29;6.77;;;2.20;;
12271;SDS011;6198;51.446;6.698;2023-06-26T13:01:55;3.30;;;1.77;;
12271;SDS011;6198;51.446;6.698;2023-06-26T13:04:21;11.13;;;1.87;;
12271;SDS011;6198;51.446;6.698;2023-06-26T13:06:47;4.13;;;1.87;;
12271;SDS011;6198;51.446;6.698;2023-06-26T13:09:13;3.00;;;2.10;;
12271;SDS011;6198;51.446;6.698;2023-06-26T13:11:39;2.77;;;2.03;;
12271;SDS011;6198;51.446;6.698;2023-06-26T13:14:05;4.73;;;2.00;;
12271;SDS011;6198;51.446;6.698;2023-06-26T13:16:31;7.70;;;2.30;;
12271;SDS011;6198;51.446;6.698;2023-06-26T13:18:58;3.03;;;1.80;;
12271;SDS011;6198;51.446;6.698;2023-06-26T13:21:25;3.93;;;1.90;;
12271;SDS011;6198;51.446;6.698;2023-06-26T13:23:51;4.17;;;1.93;;
12271;SDS011;6198;51.446;6.698;2023-06-26T13:26:18;6.83;;;2.30;;
12271;SDS011;6198;51.446;6.698;2023-06-26T13:28:44;2.23;;;1.90;;
12271;SDS011;6198;51.446;6.698;2023-06-26T13:31:10;3.67;;;1.87;;
12271;SDS011;6198;51.446;6.698;2023-06-26T13:33:36;5.10;;;2.00;;
12271;SDS011;6198;51.446;6.698;2023-06-26T13:36:02;7.53;;;2.27;;
12271;SDS011;6198;51.446;6.698;2023-06-26T13:38:30;3.57;;;2.00;;
12271;SDS011;6198;51.446;6.698;2023-06-26T13:40:56;5.43;;;2.27;;
12271;SDS011;6198;51.446;6.698;2023-06-26T13:43:22;4.10;;;2.20;;
12271;SDS011;6198;51.446;6.698;2023-06-26T13:45:49;5.53;;;2.00;;
12271;SDS011;6198;51.446;6.698;2023-06-26T13:48:15;4.72;;;2.20;;
12271;SDS011;6198;51.446;6.698;2023-06-26T14:15:01;2.65;;;1.90;;
12271;SDS011;6198;51.446;6.698;2023-06-26T14:17:28;4.28;;;1.85;;
12271;SDS011;6198;51.446;6.698;2023-06-26T14:19:54;3.10;;;1.70;;
12271;SDS011;6198;51.446;6.698;2023-06-26T14:22:20;7.50;;;1.70;;
12271;SDS011;6198;51.446;6.698;2023-06-26T14:24:46;3.58;;;1.77;;
12271;SDS011;6198;51.446;6.698;2023-06-26T14:27:12;3.33;;;1.70;;
12271;SDS011;6198;51.446;6.698;2023-06-26T14:29:38;5.38;;;2.38;;
12271;SDS011;6198;51.446;6.698;2023-06-26T14:32:04;7.03;;;2.13;;
12271;SDS011;6198;51.446;6.698;2023-06-26T14:34:30;4.47;;;2.03;;
12271;SDS011;6198;51.446;6.698;2023-06-26T14:36:56;5.93;;;1.60;;
12271;SDS011;6198;51.446;6.698;2023-06-26T14:39:22;2.30;;;1.60;;
12271;SDS011;6198;51.446;6.698;2023-06-26T14:41:48;4.67;;;2.50;;
12271;SDS011;6198;51.446;6.698;2023-06-26T14:44:14;3.30;;;1.90;;
12271;SDS011;6198;51.446;6.698;2023-06-26T14:46:40;2.47;;;1.70;;
12271;SDS011;6198;51.446;6.698;2023-06-26T14:49:06;3.17;;;1.63;;
12271;SDS011;6198;51.446;6.698;2023-06-26T14:53:59;3.63;;;1.60;;
12271;SDS011;6198;51.446;6.698;2023-06-26T14:56:25;3.27;;;1.87;;
12271;SDS011;6198;51.446;6.698;2023-06-26T14:58:51;5.03;;;2.30;;
12271;SDS011;6198;51.446;6.698;2023-06-26T15:01:18;4.23;;;2.00;;
12271;SDS011;6198;51.446;6.698;2023-06-26T15:03:45;4.00;;;1.90;;
12271;SDS011;6198;51.446;6.698;2023-06-26T15:06:10;1.80;;;1.70;;
12271;SDS011;6198;51.446;6.698;2023-06-26T15:08:36;3.27;;;2.20;;
12271;SDS011;6198;51.446;6.698;2023-06-26T15:11:02;4.97;;;2.27;;
12271;SDS011;6198;51.446;6.698;2023-06-26T15:13:28;2.23;;;1.70;;
12271;SDS011;6198;51.446;6.698;2023-06-26T15:15:54;5.20;;;1.77;;
12271;SDS011;6198;51.446;6.698;2023-06-26T15:18:20;3.80;;;2.00;;
12271;SDS011;6198;51.446;6.698;2023-06-26T15:20:46;4.17;;;1.97;;
12271;SDS011;6198;51.446;6.698;2023-06-26T15:23:12;4.37;;;1.77;;